Melody — 3FBS7 — position and weather

sailwx.info

Track history (hours):
 
Tides and Currents Weather Stations Pressure Air Temp Water Temp Dewpoint Dewpoint Depression Visibility Wind Speed Wind Dir Waves Ship Positions

Melody

Operator: Mediterranean Shipping Company

Last reported at 2019-Feb-26 18:25 UTC. Time now 2019-Mar-22 12:34 UTC.
Position N 29°12' W 094°31'.
Warning: this ship's position is 23 days out of date.

Length 225 m; draft 11.8 m.

Type: Tanker. MMSI: 371669000.

Date/timePositionNaut miles runAvg speedWind from/ knotsBaromVisibWave heightAir tempDewpointWater temp
2019-Feb-26 18:25N 29°12' W 094°31'613.4
2019-Feb-26 17:59N 29°17' W 094°35'611.6
2019-Feb-26 17:30N 29°20' W 094°40'9 9.4
2019-Feb-26 16:30N 29°25' W 094°50'510.9
2019-Feb-26 16:00N 29°30' W 094°52'511.0
2019-Feb-26 15:30N 29°34' W 094°56'510.9
2019-Feb-26 15:00N 29°39' W 094°58'4 8.6
2019-Feb-26 14:30N 29°43' W 095°01'4 6.6
2019-Feb-26 13:57N 29°45' W 095°04'2 5.0
2019-Feb-26 13:29N 29°44' W 095°07'  
2019-Feb-24 02:27N 29°44' W 095°07'2 4.3
2019-Feb-24 01:55N 29°46' W 095°05'4 9.0
2019-Feb-24 01:30N 29°44' W 095°02'5 9.3
2019-Feb-24 01:00N 29°40' W 094°59'611.5
2019-Feb-24 00:30N 29°35' W 094°56'713.3
2019-Feb-24 00:00N 29°29' W 094°52'713.6
2019-Feb-23 23:30N 29°23' W 094°49'613.1
2019-Feb-23 23:00N 29°21' W 094°42'9 6.5
2019-Feb-23 21:34N 29°11' W 094°39'0 3.6
2019-Feb-23 21:27N 29°11' W 094°39'0 0.0
2019-Feb-23 14:43N 29°11' W 094°39'0 0.0
2019-Feb-23 14:28N 29°11' W 094°39'0 0.0
2019-Feb-23 13:46N 29°11' W 094°39'0 0.0
2019-Feb-23 13:28N 29°11' W 094°39'0 0.0
2019-Feb-23 12:58N 29°11' W 094°39'0 0.0
2019-Feb-23 12:28N 29°11' W 094°39'0 0.0
2019-Feb-23 11:58N 29°11' W 094°39'0 0.0
2019-Feb-23 11:28N 29°11' W 094°39'0 0.0
2019-Feb-23 10:58N 29°11' W 094°39'0 0.0
2019-Feb-23 10:28N 29°11' W 094°39'0 0.0
2019-Feb-23 09:55N 29°11' W 094°39'0 0.0
2019-Feb-23 09:19N 29°11' W 094°39'0 0.0
2019-Feb-23 08:43N 29°11' W 094°39'0 0.0
2019-Feb-23 08:28N 29°11' W 094°39'0 0.0
2019-Feb-23 07:43N 29°11' W 094°39'0 0.1
2019-Feb-23 07:28N 29°11' W 094°39'0 0.0
2019-Feb-23 06:55N 29°11' W 094°39'0 0.0
2019-Feb-23 06:19N 29°11' W 094°39'0 0.0
2019-Feb-23 05:49N 29°11' W 094°39'0 0.0
2019-Feb-23 05:28N 29°11' W 094°39'0 0.0
2019-Feb-23 04:49N 29°11' W 094°39'0 0.0
2019-Feb-23 01:31N 29°11' W 094°39'0 0.0
2019-Feb-23 01:28N 29°11' W 094°39'0 0.0
2019-Feb-23 00:55N 29°11' W 094°39'0 0.0
2019-Feb-23 00:28N 29°11' W 094°39'0 0.0
2019-Feb-22 23:58N 29°11' W 094°39'0 0.0
2019-Feb-22 23:22N 29°11' W 094°39'0 0.0
2019-Feb-22 22:55N 29°11' W 094°39'0 0.0
2019-Feb-22 22:28N 29°11' W 094°39'0 0.0
2019-Feb-22 21:55N 29°11' W 094°39'0 0.0
2019-Feb-22 21:28N 29°11' W 094°39'0 0.0
2019-Feb-22 19:40N 29°11' W 094°39'0 0.0
2019-Feb-22 17:28N 29°11' W 094°39'0 0.0
2019-Feb-22 16:58N 29°11' W 094°39'0 0.0
2019-Feb-22 12:01N 29°11' W 094°39'0 0.0
2019-Feb-22 11:22N 29°11' W 094°39'0 0.0
2019-Feb-22 10:49N 29°11' W 094°39'0 0.0
2019-Feb-22 10:19N 29°11' W 094°39'0 0.0
2019-Feb-22 09:55N 29°11' W 094°39'0 0.0
2019-Feb-22 09:19N 29°11' W 094°39'0 0.1
2019-Feb-22 08:58N 29°11' W 094°39'0 0.0
2019-Feb-22 06:46N 29°11' W 094°39'0 0.1
2019-Feb-22 06:16N 29°11' W 094°39'0 0.0
2019-Feb-22 04:34N 29°11' W 094°39'0 0.0
2019-Feb-22 02:52N 29°11' W 094°39'0 0.0
2019-Feb-22 02:13N 29°11' W 094°39'0 0.1
2019-Feb-22 01:40N 29°11' W 094°39'0 0.0
2019-Feb-22 01:28N 29°11' W 094°39'0 0.0
2019-Feb-22 00:58N 29°11' W 094°39'0 0.0
2019-Feb-22 00:28N 29°11' W 094°39'0 0.0
2019-Feb-21 23:58N 29°11' W 094°39'0 0.0
2019-Feb-21 23:28N 29°11' W 094°39'0 0.0
2019-Feb-21 22:31N 29°11' W 094°39'0 0.0
2019-Feb-21 21:58N 29°11' W 094°39'0 0.0
2019-Feb-21 21:22N 29°11' W 094°39'0 0.0
2019-Feb-21 20:13N 29°11' W 094°39'0 0.1
2019-Feb-21 19:25N 29°11' W 094°39'0 0.0
2019-Feb-21 18:46N 29°11' W 094°39'0 0.0
2019-Feb-21 18:10N 29°11' W 094°39'0 0.0
2019-Feb-21 16:58N 29°11' W 094°39'0 0.1
2019-Feb-21 16:13N 29°11' W 094°39'0 0.0
2019-Feb-21 14:34N 29°11' W 094°39'0 0.1
2019-Feb-21 14:22N 29°11' W 094°39'0 0.2
2019-Feb-21 13:58N 29°11' W 094°39'0 0.0
2019-Feb-21 12:52N 29°11' W 094°39'0 0.0
2019-Feb-21 12:19N 29°11' W 094°39'0 0.0
2019-Feb-21 09:49N 29°11' W 094°39'0 0.1
2019-Feb-21 09:25N 29°11' W 094°39'0 0.0
2019-Feb-21 08:49N 29°11' W 094°39'0 0.0
2019-Feb-21 08:01N 29°11' W 094°39'0 0.1
2019-Feb-21 07:58N 29°11' W 094°39'0 0.0
2019-Feb-21 07:25N 29°11' W 094°39'0 0.1
2019-Feb-21 06:55N 29°11' W 094°39'0 0.0
2019-Feb-21 06:22N 29°11' W 094°39'0 0.0
2019-Feb-21 05:58N 29°11' W 094°39'0 0.0
2019-Feb-21 05:28N 29°11' W 094°39'0 0.0
2019-Feb-21 04:58N 29°11' W 094°39'0 0.1
2019-Feb-21 04:28N 29°11' W 094°39'0 0.0
2019-Feb-21 03:55N 29°11' W 094°39'0 0.0
2019-Feb-21 03:25N 29°11' W 094°39'0 0.0
2019-Feb-21 02:55N 29°11' W 094°39'0 0.0
2019-Feb-21 02:28N 29°11' W 094°39'0 0.0
2019-Feb-21 01:58N 29°11' W 094°39'0 0.0
2019-Feb-21 01:28N 29°11' W 094°39'0 0.0
2019-Feb-21 00:58N 29°11' W 094°39'0 0.0
2019-Feb-21 00:28N 29°11' W 094°39'0 0.0
2019-Feb-20 23:58N 29°11' W 094°39'0 0.0
2019-Feb-20 23:28N 29°11' W 094°39'0 0.0
2019-Feb-20 22:58N 29°11' W 094°39'0 0.0
2019-Feb-20 22:25N 29°11' W 094°39'0 0.0
2019-Feb-20 21:43N 29°11' W 094°39'0 0.0
2019-Feb-20 21:28N 29°11' W 094°39'0 0.0
2019-Feb-20 20:55N 29°11' W 094°39'0 0.0
2019-Feb-20 20:19N 29°11' W 094°39'0 0.0
2019-Feb-20 19:58N 29°11' W 094°39'0 0.0
2019-Feb-20 19:28N 29°11' W 094°39'0 0.0
2019-Feb-20 17:28N 29°11' W 094°39'0 0.0
2019-Feb-20 15:16N 29°11' W 094°39'0 0.0
2019-Feb-20 14:37N 29°11' W 094°39'0 0.0
2019-Feb-20 14:10N 29°11' W 094°39'0 0.0
2019-Feb-20 13:52N 29°11' W 094°39'0 0.0
2019-Feb-20 13:25N 29°11' W 094°39'0 0.0
2019-Feb-20 12:58N 29°11' W 094°39'0 0.0
2019-Feb-20 12:28N 29°11' W 094°39'0 0.1
2019-Feb-20 11:52N 29°11' W 094°39'0 0.0
2019-Feb-20 11:25N 29°11' W 094°39'0 0.0
2019-Feb-20 10:58N 29°11' W 094°39'0 0.0
2019-Feb-20 10:28N 29°11' W 094°39'0 0.0
2019-Feb-20 09:52N 29°11' W 094°39'0 0.0
2019-Feb-20 09:01N 29°11' W 094°39'0 0.1
2019-Feb-20 08:52N 29°11' W 094°39'0 0.1
2019-Feb-20 07:58N 29°11' W 094°39'0 0.0
2019-Feb-20 07:25N 29°11' W 094°39'0 0.0
2019-Feb-20 06:46N 29°11' W 094°39'0 0.0
2019-Feb-20 06:25N 29°11' W 094°39'0 0.0
2019-Feb-20 05:55N 29°11' W 094°39'0 0.0
2019-Feb-20 05:01N 29°11' W 094°39'0 0.1
2019-Feb-20 04:55N 29°11' W 094°39'0 0.0
2019-Feb-20 04:13N 29°11' W 094°39'0 0.0
2019-Feb-20 03:52N 29°11' W 094°39'0 0.1
2019-Feb-20 02:58N 29°11' W 094°39'0 0.0
2019-Feb-20 02:25N 29°11' W 094°39'0 0.0
2019-Feb-19 19:58N 29°11' W 094°39'0 0.1
2019-Feb-19 18:55N 29°11' W 094°39'0 0.0
2019-Feb-19 17:46N 29°11' W 094°39'0 0.0
2019-Feb-19 15:34N 29°11' W 094°39'0 0.6
2019-Feb-19 14:51N 29°11' W 094°39'1 3.2
2019-Feb-19 14:27N 29°10' W 094°40'3 6.8
2019-Feb-19 14:00N 29°07' W 094°38'  
Track history (hours):
 
Tides and Currents Weather Stations Pressure Air Temp Water Temp Dewpoint Dewpoint Depression Visibility Wind Speed Wind Dir Waves Ship Positions

Melody

Operator: Mediterranean Shipping Company

Last reported at 2019-Feb-26 18:25 UTC. Time now 2019-Mar-22 12:34 UTC.
Position N 29°12' W 094°31'.
Warning: this ship's position is 23 days out of date.

Length 225 m; draft 11.8 m.

Type: Tanker. MMSI: 371669000.

Date/timePositionNaut miles runAvg speedWind from/ knotsBaromVisibWave heightAir tempDewpointWater temp
2019-Feb-26 18:25N 29°12' W 094°31'613.4
2019-Feb-26 17:59N 29°17' W 094°35'611.6
2019-Feb-26 17:30N 29°20' W 094°40'9 9.4
2019-Feb-26 16:30N 29°25' W 094°50'510.9
2019-Feb-26 16:00N 29°30' W 094°52'511.0
2019-Feb-26 15:30N 29°34' W 094°56'510.9
2019-Feb-26 15:00N 29°39' W 094°58'4 8.6
2019-Feb-26 14:30N 29°43' W 095°01'4 6.6
2019-Feb-26 13:57N 29°45' W 095°04'2 5.0
2019-Feb-26 13:29N 29°44' W 095°07'  
2019-Feb-24 02:27N 29°44' W 095°07'2 4.3
2019-Feb-24 01:55N 29°46' W 095°05'4 9.0
2019-Feb-24 01:30N 29°44' W 095°02'5 9.3
2019-Feb-24 01:00N 29°40' W 094°59'611.5
2019-Feb-24 00:30N 29°35' W 094°56'713.3
2019-Feb-24 00:00N 29°29' W 094°52'713.6
2019-Feb-23 23:30N 29°23' W 094°49'613.1
2019-Feb-23 23:00N 29°21' W 094°42'9 6.5
2019-Feb-23 21:34N 29°11' W 094°39'0 3.6
2019-Feb-23 21:27N 29°11' W 094°39'0 0.0
2019-Feb-23 14:43N 29°11' W 094°39'0 0.0
2019-Feb-23 14:28N 29°11' W 094°39'0 0.0
2019-Feb-23 13:46N 29°11' W 094°39'0 0.0
2019-Feb-23 13:28N 29°11' W 094°39'0 0.0
2019-Feb-23 12:58N 29°11' W 094°39'0 0.0
2019-Feb-23 12:28N 29°11' W 094°39'0 0.0
2019-Feb-23 11:58N 29°11' W 094°39'0 0.0
2019-Feb-23 11:28N 29°11' W 094°39'0 0.0
2019-Feb-23 10:58N 29°11' W 094°39'0 0.0
2019-Feb-23 10:28N 29°11' W 094°39'0 0.0
2019-Feb-23 09:55N 29°11' W 094°39'0 0.0
2019-Feb-23 09:19N 29°11' W 094°39'0 0.0
2019-Feb-23 08:43N 29°11' W 094°39'0 0.0
2019-Feb-23 08:28N 29°11' W 094°39'0 0.0
2019-Feb-23 07:43N 29°11' W 094°39'0 0.1
2019-Feb-23 07:28N 29°11' W 094°39'0 0.0
2019-Feb-23 06:55N 29°11' W 094°39'0 0.0
2019-Feb-23 06:19N 29°11' W 094°39'0 0.0
2019-Feb-23 05:49N 29°11' W 094°39'0 0.0
2019-Feb-23 05:28N 29°11' W 094°39'0 0.0
2019-Feb-23 04:49N 29°11' W 094°39'0 0.0
2019-Feb-23 01:31N 29°11' W 094°39'0 0.0
2019-Feb-23 01:28N 29°11' W 094°39'0 0.0
2019-Feb-23 00:55N 29°11' W 094°39'0 0.0
2019-Feb-23 00:28N 29°11' W 094°39'0 0.0
2019-Feb-22 23:58N 29°11' W 094°39'0 0.0
2019-Feb-22 23:22N 29°11' W 094°39'0 0.0
2019-Feb-22 22:55N 29°11' W 094°39'0 0.0
2019-Feb-22 22:28N 29°11' W 094°39'0 0.0
2019-Feb-22 21:55N 29°11' W 094°39'0 0.0
2019-Feb-22 21:28N 29°11' W 094°39'0 0.0
2019-Feb-22 19:40N 29°11' W 094°39'0 0.0
2019-Feb-22 17:28N 29°11' W 094°39'0 0.0
2019-Feb-22 16:58N 29°11' W 094°39'0 0.0
2019-Feb-22 12:01N 29°11' W 094°39'0 0.0
2019-Feb-22 11:22N 29°11' W 094°39'0 0.0
2019-Feb-22 10:49N 29°11' W 094°39'0 0.0
2019-Feb-22 10:19N 29°11' W 094°39'0 0.0
2019-Feb-22 09:55N 29°11' W 094°39'0 0.0
2019-Feb-22 09:19N 29°11' W 094°39'0 0.1
2019-Feb-22 08:58N 29°11' W 094°39'0 0.0
2019-Feb-22 06:46N 29°11' W 094°39'0 0.1
2019-Feb-22 06:16N 29°11' W 094°39'0 0.0
2019-Feb-22 04:34N 29°11' W 094°39'0 0.0
2019-Feb-22 02:52N 29°11' W 094°39'0 0.0
2019-Feb-22 02:13N 29°11' W 094°39'0 0.1
2019-Feb-22 01:40N 29°11' W 094°39'0 0.0
2019-Feb-22 01:28N 29°11' W 094°39'0 0.0
2019-Feb-22 00:58N 29°11' W 094°39'0 0.0
2019-Feb-22 00:28N 29°11' W 094°39'0 0.0
2019-Feb-21 23:58N 29°11' W 094°39'0 0.0
2019-Feb-21 23:28N 29°11' W 094°39'0 0.0
2019-Feb-21 22:31N 29°11' W 094°39'0 0.0
2019-Feb-21 21:58N 29°11' W 094°39'0 0.0
2019-Feb-21 21:22N 29°11' W 094°39'0 0.0
2019-Feb-21 20:13N 29°11' W 094°39'0 0.1
2019-Feb-21 19:25N 29°11' W 094°39'0 0.0
2019-Feb-21 18:46N 29°11' W 094°39'0 0.0
2019-Feb-21 18:10N 29°11' W 094°39'0 0.0
2019-Feb-21 16:58N 29°11' W 094°39'0 0.1
2019-Feb-21 16:13N 29°11' W 094°39'0 0.0
2019-Feb-21 14:34N 29°11' W 094°39'0 0.1
2019-Feb-21 14:22N 29°11' W 094°39'0 0.2
2019-Feb-21 13:58N 29°11' W 094°39'0 0.0
2019-Feb-21 12:52N 29°11' W 094°39'0 0.0
2019-Feb-21 12:19N 29°11' W 094°39'0 0.0
2019-Feb-21 09:49N 29°11' W 094°39'0 0.1
2019-Feb-21 09:25N 29°11' W 094°39'0 0.0
2019-Feb-21 08:49N 29°11' W 094°39'0 0.0
2019-Feb-21 08:01N 29°11' W 094°39'0 0.1
2019-Feb-21 07:58N 29°11' W 094°39'0 0.0
2019-Feb-21 07:25N 29°11' W 094°39'0 0.1
2019-Feb-21 06:55N 29°11' W 094°39'0 0.0
2019-Feb-21 06:22N 29°11' W 094°39'0 0.0
2019-Feb-21 05:58N 29°11' W 094°39'0 0.0
2019-Feb-21 05:28N 29°11' W 094°39'0 0.0
2019-Feb-21 04:58N 29°11' W 094°39'0 0.1
2019-Feb-21 04:28N 29°11' W 094°39'0 0.0
2019-Feb-21 03:55N 29°11' W 094°39'0 0.0
2019-Feb-21 03:25N 29°11' W 094°39'0 0.0
2019-Feb-21 02:55N 29°11' W 094°39'0 0.0
2019-Feb-21 02:28N 29°11' W 094°39'0 0.0
2019-Feb-21 01:58N 29°11' W 094°39'0 0.0
2019-Feb-21 01:28N 29°11' W 094°39'0 0.0
2019-Feb-21 00:58N 29°11' W 094°39'0 0.0
2019-Feb-21 00:28N 29°11' W 094°39'0 0.0
2019-Feb-20 23:58N 29°11' W 094°39'0 0.0
2019-Feb-20 23:28N 29°11' W 094°39'0 0.0
2019-Feb-20 22:58N 29°11' W 094°39'0 0.0
2019-Feb-20 22:25N 29°11' W 094°39'0 0.0
2019-Feb-20 21:43N 29°11' W 094°39'0 0.0
2019-Feb-20 21:28N 29°11' W 094°39'0 0.0
2019-Feb-20 20:55N 29°11' W 094°39'0 0.0
2019-Feb-20 20:19N 29°11' W 094°39'0 0.0
2019-Feb-20 19:58N 29°11' W 094°39'0 0.0
2019-Feb-20 19:28N 29°11' W 094°39'0 0.0
2019-Feb-20 17:28N 29°11' W 094°39'0 0.0
2019-Feb-20 15:16N 29°11' W 094°39'0 0.0
2019-Feb-20 14:37N 29°11' W 094°39'0 0.0
2019-Feb-20 14:10N 29°11' W 094°39'0 0.0
2019-Feb-20 13:52N 29°11' W 094°39'0 0.0
2019-Feb-20 13:25N 29°11' W 094°39'0 0.0
2019-Feb-20 12:58N 29°11' W 094°39'0 0.0
2019-Feb-20 12:28N 29°11' W 094°39'0 0.1
2019-Feb-20 11:52N 29°11' W 094°39'0 0.0
2019-Feb-20 11:25N 29°11' W 094°39'0 0.0
2019-Feb-20 10:58N 29°11' W 094°39'0 0.0
2019-Feb-20 10:28N 29°11' W 094°39'0 0.0
2019-Feb-20 09:52N 29°11' W 094°39'0 0.0
2019-Feb-20 09:01N 29°11' W 094°39'0 0.1
2019-Feb-20 08:52N 29°11' W 094°39'0 0.1
2019-Feb-20 07:58N 29°11' W 094°39'0 0.0
2019-Feb-20 07:25N 29°11' W 094°39'0 0.0
2019-Feb-20 06:46N 29°11' W 094°39'0 0.0
2019-Feb-20 06:25N 29°11' W 094°39'0 0.0
2019-Feb-20 05:55N 29°11' W 094°39'0 0.0
2019-Feb-20 05:01N 29°11' W 094°39'0 0.1
2019-Feb-20 04:55N 29°11' W 094°39'0 0.0
2019-Feb-20 04:13N 29°11' W 094°39'0 0.0
2019-Feb-20 03:52N 29°11' W 094°39'0 0.1
2019-Feb-20 02:58N 29°11' W 094°39'0 0.0
2019-Feb-20 02:25N 29°11' W 094°39'0 0.0
2019-Feb-19 19:58N 29°11' W 094°39'0 0.1
2019-Feb-19 18:55N 29°11' W 094°39'0 0.0
2019-Feb-19 17:46N 29°11' W 094°39'0 0.0
2019-Feb-19 15:34N 29°11' W 094°39'0 0.6
2019-Feb-19 14:51N 29°11' W 094°39'1 3.2
2019-Feb-19 14:27N 29°10' W 094°40'3 6.8
2019-Feb-19 14:00N 29°07' W 094°38'  

Dump ship's entire track history